Time;durP1;ratioP1;P1;durP2;ratioP2;P2;SDS_P1;SDS_P2;PMS_P1;PMS_P2;Temp;Humidity;BMP_temperature;BMP_pressure;BME280_temperature;BME280_humidity;BME280_pressure;Samples;Min_cycle;Max_cycle;Signal;HPM_P1;HPM_P2
2021/01/10 00:00:11;;;;;;;55.05;17.52;;;;;;;-5.89;75.94;96814.84;5053407;28;20045;-73
2021/01/10 00:02:37;;;;;;;42.50;16.77;;;;;;;-5.86;75.99;96810.97;5052783;28;20055;-72
2021/01/10 00:05:06;;;;;;;37.28;16.25;;;;;;;-5.82;76.07;96809.56;5053755;28;20045;-72
2021/01/10 00:07:33;;;;;;;38.00;15.80;;;;;;;-5.76;76.15;96814.03;5052926;28;20047;-72
2021/01/10 00:09:59;;;;;;;37.95;15.27;;;;;;;-5.79;75.93;96814.47;5053230;28;20049;-72
2021/01/10 00:12:26;;;;;;;38.60;15.25;;;;;;;-5.79;75.92;96809.16;5052844;28;20052;-72
2021/01/10 00:14:53;;;;;;;47.13;16.08;;;;;;;-5.80;75.52;96797.69;5052920;28;20055;-72
2021/01/10 00:17:20;;;;;;;44.15;15.75;;;;;;;-5.86;75.41;96805.66;5053010;28;20041;-73
2021/01/10 00:19:47;;;;;;;47.05;15.70;;;;;;;-5.87;75.65;96807.50;5052397;28;20049;-73
2021/01/10 00:22:13;;;;;;;51.42;15.15;;;;;;;-5.88;75.77;96799.75;5053453;28;20176;-73
2021/01/10 00:24:40;;;;;;;34.08;14.25;;;;;;;-5.90;75.66;96801.78;5052487;28;20053;-72
2021/01/10 00:27:08;;;;;;;39.60;16.75;;;;;;;-5.92;75.92;96803.84;5053072;28;20047;-72
2021/01/10 00:29:35;;;;;;;35.92;15.57;;;;;;;-5.92;76.22;96799.38;5052434;28;20048;-73
2021/01/10 00:32:02;;;;;;;41.78;18.88;;;;;;;-5.92;76.00;96798.56;5052714;28;20507;-72
2021/01/10 00:34:27;;;;;;;39.47;15.80;;;;;;;-5.91;76.17;96794.88;5053238;28;20055;-72
2021/01/10 00:36:53;;;;;;;48.92;17.50;;;;;;;-5.91;76.49;96802.84;5053552;28;20407;-73
2021/01/10 00:39:19;;;;;;;47.40;18.55;;;;;;;-5.90;76.89;96805.28;5053119;28;20053;-73
2021/01/10 00:41:46;;;;;;;37.60;15.75;;;;;;;-5.85;77.10;96799.34;5052557;28;20056;-72
2021/01/10 00:44:12;;;;;;;36.03;15.98;;;;;;;-5.88;75.34;96799.75;5052875;28;20044;-73
2021/01/10 00:46:38;;;;;;;36.58;16.70;;;;;;;-6.03;72.49;96797.31;5052005;28;20045;-72
2021/01/10 00:49:04;;;;;;;37.75;16.10;;;;;;;-6.08;72.54;96800.56;5052308;28;20045;-72
2021/01/10 00:51:31;;;;;;;40.65;17.35;;;;;;;-6.06;72.78;96795.88;5051692;28;20424;-72
2021/01/10 00:53:56;;;;;;;41.15;16.35;;;;;;;-6.02;73.16;96791.00;5050211;28;20044;-73
2021/01/10 00:56:22;;;;;;;45.33;17.67;;;;;;;-5.98;73.64;96796.72;5051477;28;20049;-72
2021/01/10 00:58:49;;;;;;;47.30;15.00;;;;;;;-5.95;74.38;96794.50;5052684;28;20060;-73
2021/01/10 01:01:15;;;;;;;36.78;15.48;;;;;;;-5.91;75.05;96789.56;5051886;28;20051;-72
2021/01/10 01:03:41;;;;;;;33.83;15.75;;;;;;;-5.89;75.26;96795.47;5052229;28;20049;-73
2021/01/10 01:06:11;;;;;;;35.97;15.10;;;;;;;-5.88;75.01;96794.44;5052386;28;20056;-72
2021/01/10 01:08:37;;;;;;;38.95;16.23;;;;;;;-5.88;74.23;96799.75;5051551;28;20450;-73
2021/01/10 01:11:04;;;;;;;38.05;17.05;;;;;;;-5.90;73.96;96793.81;5052487;28;20045;-72
2021/01/10 01:13:30;;;;;;;39.65;16.65;;;;;;;-5.93;72.92;96796.94;5051900;28;20506;-72
2021/01/10 01:15:56;;;;;;;45.00;17.35;;;;;;;-5.97;72.36;96798.34;5052740;28;20045;-73
2021/01/10 01:18:22;;;;;;;45.47;17.60;;;;;;;-6.02;71.71;96803.44;5051195;28;20044;-72
2021/01/10 01:20:51;;;;;;;42.50;17.75;;;;;;;-6.08;71.37;96789.97;5052218;28;20428;-73
2021/01/10 01:23:17;;;;;;;42.78;17.48;;;;;;;-6.10;71.08;96797.31;5051497;28;20055;-72
2021/01/10 01:25:44;;;;;;;42.92;18.48;;;;;;;-6.20;71.00;96802.19;5051535;28;20049;-73
2021/01/10 01:28:09;;;;;;;43.63;18.85;;;;;;;-6.35;70.30;96807.66;5051647;28;20045;-72
2021/01/10 01:30:35;;;;;;;40.40;17.67;;;;;;;-6.49;70.24;96802.53;5051237;28;20045;-73
2021/01/10 01:33:02;;;;;;;55.10;18.15;;;;;;;-6.68;69.88;96798.78;5051825;28;20525;-72
2021/01/10 01:35:28;;;;;;;45.47;17.65;;;;;;;-6.77;70.11;96806.13;5051102;28;20535;-72
2021/01/10 01:37:54;;;;;;;52.92;19.45;;;;;;;-6.85;71.24;96814.22;5052476;28;20045;-72
2021/01/10 01:40:20;;;;;;;45.47;17.73;;;;;;;-6.90;72.08;96806.84;5050530;28;20135;-72
2021/01/10 01:42:46;;;;;;;47.88;17.55;;;;;;;-6.90;72.87;96813.97;5052076;28;20577;-72
2021/01/10 01:45:12;;;;;;;44.92;17.60;;;;;;;-6.90;73.23;96816.63;5050779;28;20613;-72
2021/01/10 01:47:39;;;;;;;52.95;17.08;;;;;;;-6.94;73.90;96821.53;5051636;28;20487;-72
2021/01/10 01:50:07;;;;;;;50.20;17.75;;;;;;;-6.95;74.52;96822.50;5050901;28;20052;-72
2021/01/10 01:52:34;;;;;;;49.83;16.08;;;;;;;-6.92;75.20;96822.13;5051368;28;20041;-72
2021/01/10 01:55:00;;;;;;;40.42;15.65;;;;;;;-6.91;75.30;96820.31;5051685;28;20102;-72
2021/01/10 01:57:27;;;;;;;51.10;15.63;;;;;;;-6.90;75.30;96824.56;5050545;28;20045;-72
2021/01/10 01:59:53;;;;;;;55.13;14.63;;;;;;;-6.92;74.78;96819.50;5051872;28;20049;-73
2021/01/10 02:02:19;;;;;;;39.45;14.88;;;;;;;-6.96;74.71;96828.00;5050352;28;20055;-72
2021/01/10 02:04:48;;;;;;;55.85;17.45;;;;;;;-6.97;74.72;96818.44;5051764;28;20412;-72
2021/01/10 02:07:22;;;;;;;44.28;15.57;;;;;;;-7.04;74.45;96820.25;5049486;28;20063;-72
2021/01/10 02:09:53;;;;;;;40.72;17.02;;;;;;;-7.11;74.57;96820.19;5051223;28;20545;-72
2021/01/10 02:12:21;;;;;;;48.13;16.27;;;;;;;-7.15;74.66;96817.13;5050566;28;20041;-72
2021/01/10 02:14:51;;;;;;;44.28;16.25;;;;;;;-7.23;73.87;96817.28;5050790;28;20052;-72
2021/01/10 02:17:18;;;;;;;40.67;15.77;;;;;;;-7.28;73.97;96819.69;5050757;28;20499;-72
2021/01/10 02:19:56;;;;;;;44.28;17.27;;;;;;;-7.30;74.28;96821.72;5050418;28;20048;-72
2021/01/10 02:22:27;;;;;;;54.42;15.60;;;;;;;-7.29;74.33;96825.19;5051154;28;20048;-72
2021/01/10 02:24:55;;;;;;;50.88;15.90;;;;;;;-7.30;74.26;96821.72;5050348;28;20419;-73
2021/01/10 02:27:21;;;;;;;40.78;16.30;;;;;;;-7.26;74.33;96828.25;5051025;28;20052;-73
2021/01/10 02:29:48;;;;;;;46.63;17.27;;;;;;;-7.20;74.17;96821.38;5051206;28;20045;-73
2021/01/10 02:32:16;;;;;;;61.17;16.38;;;;;;;-7.20;74.31;96816.91;5050310;28;20129;-72
2021/01/10 02:34:43;;;;;;;53.53;16.63;;;;;;;-7.20;74.16;96826.69;5050975;28;20053;-72
2021/01/10 02:37:20;;;;;;;46.35;16.83;;;;;;;-7.18;74.61;96819.34;5049848;28;20056;-72
2021/01/10 02:39:59;;;;;;;68.43;17.63;;;;;;;-7.17;74.86;96821.78;5051372;28;20052;-72
2021/01/10 02:42:35;;;;;;;56.60;17.15;;;;;;;-7.21;74.66;96825.84;5049564;28;20171;-72
2021/01/10 02:45:05;;;;;;;57.13;15.60;;;;;;;-7.19;74.84;96818.53;5050847;28;20538;-72
2021/01/10 02:47:32;;;;;;;68.13;15.23;;;;;;;-7.23;74.45;96822.56;5050227;28;20048;-72
2021/01/10 02:49:58;;;;;;;47.05;14.90;;;;;;;-7.26;74.29;96828.25;5050426;28;20131;-72
2021/01/10 02:52:24;;;;;;;40.03;14.43;;;;;;;-7.28;74.14;96830.28;5050178;28;20483;-72
2021/01/10 02:54:49;;;;;;;41.92;15.80;;;;;;;-7.29;74.23;96827.84;5049993;28;20048;-72
2021/01/10 02:57:22;;;;;;;41.05;15.52;;;;;;;-7.30;74.30;96827.03;5050235;28;20048;-72
2021/01/10 02:59:50;;;;;;;33.67;14.70;;;;;;;-7.34;73.78;96825.75;5049815;28;20056;-72
2021/01/10 03:02:19;;;;;;;38.60;14.18;;;;;;;-7.37;73.68;96831.44;5050605;28;20049;-72
2021/01/10 03:04:46;;;;;;;31.33;13.23;;;;;;;-7.39;73.64;96829.00;5049974;28;20049;-73
2021/01/10 03:07:12;;;;;;;31.35;12.88;;;;;;;-7.40;73.73;96837.13;5050527;28;20041;-72
2021/01/10 03:09:38;;;;;;;38.92;13.32;;;;;;;-7.41;73.85;96824.91;5050014;28;20052;-72
2021/01/10 03:12:19;;;;;;;33.00;12.18;;;;;;;-7.41;73.68;96828.38;5049922;28;20045;-72
2021/01/10 03:14:46;;;;;;;32.75;12.68;;;;;;;-7.40;73.46;96826.53;5050571;28;20052;-72
2021/01/10 03:17:19;;;;;;;27.13;13.07;;;;;;;-7.38;73.48;96829.81;5052788;28;20041;-72
2021/01/10 03:19:45;;;;;;;29.58;11.50;;;;;;;-7.35;73.16;96824.13;5054886;28;20502;-72
2021/01/10 03:22:11;;;;;;;26.08;11.50;;;;;;;-7.39;72.72;96822.88;5053266;28;20110;-73
2021/01/10 03:24:37;;;;;;;26.67;11.45;;;;;;;-7.40;72.87;96821.25;5054914;28;20504;-72
2021/01/10 03:27:03;;;;;;;24.48;11.50;;;;;;;-7.43;73.15;96826.91;5052516;28;20044;-72
2021/01/10 03:29:28;;;;;;;29.55;11.52;;;;;;;-7.51;73.72;96822.59;5054366;28;20037;-72
2021/01/10 03:31:54;;;;;;;27.40;11.35;;;;;;;-7.48;73.93;96818.75;5055149;28;20547;-72
2021/01/10 03:34:21;;;;;;;23.75;11.18;;;;;;;-7.43;74.39;96816.34;5073787;28;20045;-72
2021/01/10 03:36:47;;;;;;;26.90;11.82;;;;;;;-7.31;74.91;96814.78;5074197;28;20118;-72
2021/01/10 03:39:13;;;;;;;29.17;11.70;;;;;;;-7.20;74.97;96816.09;5073282;28;20494;-72
2021/01/10 03:41:39;;;;;;;31.65;13.35;;;;;;;-7.15;74.76;96809.19;5074106;28;20080;-71
2021/01/10 03:44:05;;;;;;;30.88;13.07;;;;;;;-7.04;75.04;96814.97;5072861;28;20049;-72
2021/01/10 03:46:31;;;;;;;28.67;12.32;;;;;;;-6.94;75.14;96810.09;5074514;28;20047;-72
2021/01/10 03:48:57;;;;;;;32.42;12.13;;;;;;;-6.87;75.05;96816.25;5073141;28;20045;-72
2021/01/10 03:51:27;;;;;;;28.60;11.10;;;;;;;-6.73;75.21;96815.31;5073906;28;20044;-72
2021/01/10 03:53:53;;;;;;;28.77;12.50;;;;;;;-6.69;74.77;96816.50;5073228;28;20044;-72
2021/01/10 03:56:19;;;;;;;24.83;12.20;;;;;;;-6.74;73.38;96811.00;5073299;28;20098;-72
2021/01/10 03:58:45;;;;;;;33.97;12.80;;;;;;;-6.71;73.47;96815.09;5073373;28;20058;-72
2021/01/10 04:01:11;;;;;;;34.53;13.10;;;;;;;-6.60;73.98;96812.69;5072966;28;20074;-72
2021/01/10 04:03:37;;;;;;;30.02;11.30;;;;;;;-6.50;75.21;96806.19;5056727;28;20041;-72
2021/01/10 04:06:03;;;;;;;36.00;13.45;;;;;;;-6.42;76.21;96803.34;5052672;28;20136;-71
2021/01/10 04:08:30;;;;;;;38.92;13.10;;;;;;;-6.33;76.71;96810.13;5053850;28;20048;-72
2021/01/10 04:10:56;;;;;;;43.75;12.07;;;;;;;-6.25;77.32;96804.63;5052967;28;20037;-72
2021/01/10 04:13:22;;;;;;;53.03;13.50;;;;;;;-6.16;77.70;96803.44;5053540;28;20123;-72
2021/01/10 04:15:48;;;;;;;32.17;12.30;;;;;;;-6.08;77.89;96795.28;5052736;28;20136;-72
2021/01/10 04:18:14;;;;;;;31.50;12.75;;;;;;;-5.98;78.20;96800.19;5053279;28;20056;-72
2021/01/10 04:20:40;;;;;;;38.58;12.55;;;;;;;-5.93;78.16;96803.03;5052884;28;20049;-72
2021/01/10 04:23:06;;;;;;;34.53;13.77;;;;;;;-5.88;78.36;96797.09;5052786;28;20069;-72
2021/01/10 04:25:32;;;;;;;32.97;12.73;;;;;;;-5.80;78.23;96796.88;5053022;28;20052;-72
2021/01/10 04:27:58;;;;;;;35.42;12.23;;;;;;;-5.74;78.28;96804.06;5052494;28;20103;-72
2021/01/10 04:30:25;;;;;;;39.42;11.90;;;;;;;-5.68;78.33;96805.88;5052891;28;20041;-72
2021/01/10 04:32:51;;;;;;;41.75;13.70;;;;;;;-5.63;78.17;96803.44;5054645;28;20052;-72
2021/01/10 04:35:17;;;;;;;49.78;11.45;;;;;;;-5.57;78.33;96802.59;5053115;28;20040;-72
2021/01/10 04:37:43;;;;;;;32.50;11.88;;;;;;;-5.54;78.20;96809.34;5052267;28;20502;-72
2021/01/10 04:40:10;;;;;;;44.35;12.00;;;;;;;-5.48;78.30;96815.66;5053104;28;20071;-72
2021/01/10 04:42:37;;;;;;;46.90;12.68;;;;;;;-5.44;78.37;96808.91;5052260;28;20078;-72
2021/01/10 04:45:04;;;;;;;31.25;11.35;;;;;;;-5.38;78.29;96816.06;5052577;28;20071;-72
2021/01/10 04:47:30;;;;;;;27.70;10.65;;;;;;;-5.39;78.51;96817.09;5052598;28;20045;-72
2021/01/10 04:49:58;;;;;;;29.73;10.80;;;;;;;-5.41;78.09;96811.19;5052463;28;20049;-72
2021/01/10 04:52:27;;;;;;;23.73;9.43;;;;;;;-5.43;77.76;96815.84;5052483;28;20037;-72
2021/01/10 04:54:54;;;;;;;20.98;8.82;;;;;;;-5.47;77.49;96812.81;5052178;28;20710;-72
2021/01/10 04:57:23;;;;;;;22.88;8.98;;;;;;;-5.49;77.23;96803.41;5052448;28;20124;-72
2021/01/10 04:59:50;;;;;;;21.95;8.73;;;;;;;-5.54;76.65;96799.53;5051827;28;20060;-72
2021/01/10 05:02:24;;;;;;;24.25;9.57;;;;;;;-5.54;76.60;96802.19;5054852;28;20487;-72
2021/01/10 05:04:50;;;;;;;24.08;10.23;;;;;;;-5.60;76.25;96800.34;5051982;28;20499;-72
2021/01/10 05:07:16;;;;;;;23.35;9.57;;;;;;;-5.62;76.22;96799.75;5052289;28;20049;-72
2021/01/10 05:09:43;;;;;;;23.00;9.70;;;;;;;-5.60;76.29;96797.69;5052139;28;20095;-72
2021/01/10 05:12:09;;;;;;;23.52;9.90;;;;;;;-5.58;76.19;96803.63;5051663;28;20048;-72
2021/01/10 05:14:35;;;;;;;22.27;10.15;;;;;;;-5.53;76.32;96798.53;5052479;28;20052;-72
2021/01/10 05:17:02;;;;;;;25.20;9.88;;;;;;;-5.50;76.21;96799.94;5051369;28;20098;-71
2021/01/10 05:19:30;;;;;;;26.58;11.18;;;;;;;-5.53;75.91;96798.53;5052512;28;20110;-72
2021/01/10 05:21:56;;;;;;;24.95;10.75;;;;;;;-5.49;75.90;96803.41;5051265;28;20063;-72
2021/01/10 05:24:22;;;;;;;25.58;11.27;;;;;;;-5.49;75.89;96801.56;5052378;28;20397;-72
2021/01/10 05:26:48;;;;;;;24.35;9.77;;;;;;;-5.46;75.54;96808.31;5051234;28;20049;-72
2021/01/10 05:29:14;;;;;;;23.70;9.90;;;;;;;-5.46;75.54;96803.00;5051844;28;20392;-72
2021/01/10 05:31:42;;;;;;;25.20;10.60;;;;;;;-5.42;75.38;96806.91;5053740;28;20059;-72
2021/01/10 05:34:10;;;;;;;23.15;10.85;;;;;;;-5.39;75.33;96811.78;5051405;28;20068;-72
2021/01/10 05:36:37;;;;;;;25.13;11.25;;;;;;;-5.42;75.07;96805.06;5051921;28;20075;-72
2021/01/10 05:39:18;;;;;;;24.52;10.55;;;;;;;-5.40;75.15;96804.84;5050163;28;20407;-72
2021/01/10 05:41:50;;;;;;;18.92;8.98;;;;;;;-5.41;75.06;96806.69;5052379;28;20536;-72
2021/01/10 05:44:16;;;;;;;29.48;12.45;;;;;;;-5.45;74.97;96799.34;5050535;28;20565;-72
2021/01/10 05:46:42;;;;;;;26.08;11.50;;;;;;;-5.48;75.03;96802.38;5052098;28;20503;-72
2021/01/10 05:49:18;;;;;;;23.55;9.90;;;;;;;-5.49;74.78;96808.72;5050220;28;20052;-72
2021/01/10 05:51:45;;;;;;;22.40;9.95;;;;;;;-5.51;74.31;96801.78;5051701;28;20412;-72
2021/01/10 05:54:31;;;;;;;21.48;10.05;;;;;;;-5.47;74.42;96801.38;5050877;28;20045;-72
2021/01/10 05:56:57;;;;;;;23.50;10.15;;;;;;;-5.49;74.44;96801.56;5050842;28;20045;-72
2021/01/10 05:59:23;;;;;;;24.10;10.55;;;;;;;-5.47;74.46;96806.69;5051271;28;20045;-72
2021/01/10 06:01:54;;;;;;;27.95;11.50;;;;;;;-5.44;74.63;96803.59;5054990;28;20413;-72
2021/01/10 06:04:22;;;;;;;24.98;10.63;;;;;;;-5.45;74.39;96805.44;5071253;28;20072;-72
2021/01/10 06:06:48;;;;;;;27.20;12.30;;;;;;;-5.45;74.19;96810.75;5070563;28;20044;-71
2021/01/10 06:09:14;;;;;;;26.45;11.68;;;;;;;-5.47;73.98;96809.34;5070979;28;20041;-72
2021/01/10 06:11:40;;;;;;;34.58;12.50;;;;;;;-5.52;73.90;96808.13;5070816;28;20053;-72
2021/01/10 06:14:06;;;;;;;28.52;12.13;;;;;;;-5.58;73.57;96814.25;5070664;28;20114;-72
2021/01/10 06:16:34;;;;;;;32.03;12.60;;;;;;;-5.59;73.77;96820.56;5070819;28;20623;-72
2021/01/10 06:19:02;;;;;;;31.30;13.50;;;;;;;-5.57;73.83;96818.53;5070846;28;20056;-72
2021/01/10 06:21:30;;;;;;;37.80;14.85;;;;;;;-5.53;73.95;96825.06;5070932;28;20044;-72
2021/01/10 06:23:58;;;;;;;32.17;13.88;;;;;;;-5.51;74.15;96811.59;5070098;28;20499;-72
2021/01/10 06:26:26;;;;;;;40.17;14.82;;;;;;;-5.48;74.14;96820.97;5070700;28;20535;-72
2021/01/10 06:28:55;;;;;;;36.83;13.98;;;;;;;-5.45;74.41;96821.38;5070152;28;20056;-72
2021/01/10 06:31:24;;;;;;;37.80;14.75;;;;;;;-5.44;74.51;96816.88;5070776;28;20060;-73
2021/01/10 06:33:56;;;;;;;37.22;14.07;;;;;;;-5.40;74.69;96824.22;5051557;28;20083;-72
2021/01/10 06:36:24;;;;;;;34.92;13.90;;;;;;;-5.36;74.73;96820.16;5050391;28;20052;-72
2021/01/10 06:38:57;;;;;;;36.33;13.70;;;;;;;-5.33;74.64;96824.22;5050713;28;20069;-72
2021/01/10 06:42:12;;;;;;;36.15;13.55;;;;;;;-5.32;74.48;96825.88;5049839;28;20514;-72
2021/01/10 06:44:41;;;;;;;32.42;13.80;;;;;;;-5.31;74.40;96832.81;5050811;28;20656;-72
2021/01/10 06:47:14;;;;;;;29.83;12.00;;;;;;;-5.30;74.20;96845.06;5049592;28;20057;-72
2021/01/10 06:49:40;;;;;;;33.35;12.15;;;;;;;-5.28;74.12;96846.47;5050453;28;20044;-72
2021/01/10 06:52:10;;;;;;;30.60;11.98;;;;;;;-5.26;74.30;96840.97;5049981;28;20482;-72
2021/01/10 06:54:41;;;;;;;32.67;13.15;;;;;;;-5.23;74.61;96855.66;5050178;28;20037;-72
2021/01/10 06:57:08;;;;;;;32.92;13.85;;;;;;;-5.25;74.72;96847.91;5050296;28;20053;-72
2021/01/10 06:59:56;;;;;;;35.08;14.80;;;;;;;-5.17;75.13;96847.66;5049674;28;20281;-71
2021/01/10 07:02:22;;;;;;;34.85;14.93;;;;;;;-5.13;75.34;96848.09;5052691;28;20049;-72
2021/01/10 07:05:01;;;;;;;34.78;13.85;;;;;;;-5.17;75.31;96855.63;5049985;28;20041;-72
2021/01/10 07:07:37;;;;;;;38.10;14.82;;;;;;;-5.18;75.32;96854.00;5042108;28;20045;-72
2021/01/10 07:10:07;;;;;;;39.95;14.70;;;;;;;-5.13;75.32;96854.22;5049867;28;20098;-71
2021/01/10 07:12:33;;;;;;;39.78;14.93;;;;;;;-5.09;75.38;96852.78;5049871;28;20049;-72
2021/01/10 07:15:39;;;;;;;34.50;14.65;;;;;;;-5.02;75.28;96858.88;5050891;28;20049;-72
2021/01/10 07:18:07;;;;;;;37.00;14.30;;;;;;;-5.07;75.14;96866.66;5049158;28;20037;-72
2021/01/10 07:20:35;;;;;;;38.08;15.27;;;;;;;-5.04;75.07;96866.25;5050380;28;20041;-72
2021/01/10 07:23:29;;;;;;;35.88;15.48;;;;;;;-4.96;75.06;96861.72;5049997;28;20132;-72
2021/01/10 07:25:57;;;;;;;33.25;14.90;;;;;;;-4.94;74.91;96860.53;5049322;28;20095;-71
2021/01/10 07:28:39;;;;;;;34.05;14.25;;;;;;;-4.90;74.72;96860.94;5050156;28;20045;-72
2021/01/10 07:31:07;;;;;;;31.48;13.40;;;;;;;-4.85;74.61;96858.47;5050185;28;20123;-72
2021/01/10 07:33:33;;;;;;;33.50;14.48;;;;;;;-4.85;74.62;96864.59;5067161;28;20051;-72
2021/01/10 07:36:00;;;;;;;33.00;13.15;;;;;;;-4.81;74.68;96855.16;5069746;28;20048;-72
2021/01/10 07:38:26;;;;;;;36.65;14.70;;;;;;;-4.79;74.24;96852.31;5069841;28;20036;-72
2021/01/10 07:40:52;;;;;;;31.00;12.50;;;;;;;-4.79;74.21;96844.34;5069969;28;20045;-72
2021/01/10 07:43:19;;;;;;;33.85;14.30;;;;;;;-4.80;74.15;96856.00;5069386;28;20566;-72
2021/01/10 07:45:45;;;;;;;35.38;14.48;;;;;;;-4.78;74.26;96865.38;5070348;28;20055;-72
2021/01/10 07:48:25;;;;;;;34.78;14.40;;;;;;;-4.76;74.04;96852.69;5069095;28;20052;-72
2021/01/10 07:51:14;;;;;;;34.40;14.45;;;;;;;-4.73;74.15;96856.78;5070492;28;20052;-72
2021/01/10 07:53:47;;;;;;;35.83;14.55;;;;;;;-4.67;74.53;96855.94;5069225;28;20041;-72
2021/01/10 07:56:16;;;;;;;36.88;14.85;;;;;;;-4.62;74.74;96858.78;5069338;28;20110;-72
2021/01/10 07:58:43;;;;;;;35.28;14.32;;;;;;;-4.57;74.65;96855.50;5069752;28;20045;-71
2021/01/10 08:01:09;;;;;;;33.78;14.23;;;;;;;-4.57;74.78;96858.97;5069053;28;20396;-73
2021/01/10 08:03:35;;;;;;;34.10;13.48;;;;;;;-4.53;74.99;96862.84;5073318;28;20041;-72
2021/01/10 08:06:04;;;;;;;37.30;13.55;;;;;;;-4.44;74.84;96865.25;5072002;28;20045;-73
2021/01/10 08:08:42;;;;;;;32.92;13.98;;;;;;;-4.48;73.81;96868.38;5073587;28;20517;-72
2021/01/10 08:11:08;;;;;;;34.83;13.93;;;;;;;-4.53;72.71;96870.03;5071920;28;20060;-73
2021/01/10 08:13:36;;;;;;;30.63;13.55;;;;;;;-4.59;71.66;96873.53;5073428;28;20103;-72
2021/01/10 08:16:05;;;;;;;30.02;13.38;;;;;;;-4.74;71.26;96871.09;5070853;28;20049;-72
2021/01/10 08:18:36;;;;;;;33.92;14.82;;;;;;;-4.88;71.42;96880.13;5072642;28;20048;-72
2021/01/10 08:21:04;;;;;;;32.17;13.80;;;;;;;-5.03;71.76;96889.13;5069376;28;20052;-72
2021/01/10 08:23:31;;;;;;;35.33;15.00;;;;;;;-4.98;71.81;96893.81;5068780;28;20086;-72
2021/01/10 08:26:09;;;;;;;37.13;15.07;;;;;;;-4.96;71.91;96894.41;5069574;28;20052;-72
2021/01/10 08:28:40;;;;;;;38.67;15.75;;;;;;;-4.96;71.64;96883.78;5069379;28;20052;-72
2021/01/10 08:31:09;;;;;;;34.25;14.57;;;;;;;-4.87;72.11;96887.06;5069611;28;20106;-73
2021/01/10 08:33:36;;;;;;;30.27;12.70;;;;;;;-4.92;71.18;96878.91;5051494;28;20067;-73
2021/01/10 08:36:11;;;;;;;36.60;14.65;;;;;;;-5.04;70.74;96886.69;5049090;28;20053;-73
2021/01/10 08:38:38;;;;;;;37.33;14.10;;;;;;;-5.18;70.95;96891.19;5049582;28;20049;-72
2021/01/10 08:41:04;;;;;;;29.58;12.57;;;;;;;-5.07;71.53;96887.09;5048659;28;20056;-72
2021/01/10 08:43:30;;;;;;;35.70;13.35;;;;;;;-5.00;71.40;96883.41;5049486;28;20055;-73
2021/01/10 08:45:56;;;;;;;29.92;13.70;;;;;;;-4.94;71.23;96891.59;5048860;28;20581;-73
2021/01/10 08:48:23;;;;;;;33.92;13.60;;;;;;;-4.82;71.82;96885.41;5049642;28;20057;-72
2021/01/10 08:50:48;;;;;;;32.03;13.52;;;;;;;-4.74;71.55;96892.38;5051825;28;20462;-73
2021/01/10 08:53:14;;;;;;;29.08;13.93;;;;;;;-4.67;71.51;96879.88;5069365;28;20059;-73
2021/01/10 08:55:42;;;;;;;31.55;13.60;;;;;;;-4.51;71.50;96884.72;5068562;28;20052;-73
2021/01/10 08:58:09;;;;;;;32.05;13.73;;;;;;;-4.35;71.72;96890.59;5068885;28;20055;-73
2021/01/10 09:00:39;;;;;;;30.63;13.98;;;;;;;-4.23;71.65;96886.25;5068879;28;20049;-73
2021/01/10 09:03:15;;;;;;;28.50;12.52;;;;;;;-4.36;69.95;96884.47;5055008;28;20598;-73
2021/01/10 09:05:44;;;;;;;31.75;12.38;;;;;;;-4.38;69.86;96883.88;5059179;28;20068;-71
2021/01/10 09:08:22;;;;;;;30.08;13.43;;;;;;;-4.37;69.83;96888.16;5068011;28;20059;-71
2021/01/10 09:11:03;;;;;;;35.05;14.32;;;;;;;-4.36;70.17;96889.78;5069606;28;20099;-70
2021/01/10 09:13:33;;;;;;;30.17;14.25;;;;;;;-4.31;70.20;96886.50;5067162;28;20049;-70
2021/01/10 09:16:00;;;;;;;31.40;13.35;;;;;;;-4.28;70.06;96896.69;5068781;28;20522;-69
2021/01/10 09:18:30;;;;;;;30.88;13.88;;;;;;;-4.21;70.25;96894.84;5068301;28;20052;-70
2021/01/10 09:21:01;;;;;;;27.25;13.00;;;;;;;-4.18;70.23;96902.38;5069323;28;20048;-71
2021/01/10 09:23:28;;;;;;;31.73;13.45;;;;;;;-4.09;70.69;96908.28;5067279;28;20056;-71
2021/01/10 09:25:54;;;;;;;37.72;14.55;;;;;;;-4.06;71.36;96908.69;5067467;28;20079;-71
2021/01/10 09:28:22;;;;;;;38.83;14.60;;;;;;;-3.91;72.33;96902.28;5068548;28;20056;-72
2021/01/10 09:30:52;;;;;;;38.20;13.77;;;;;;;-3.78;72.98;96913.66;5067904;28;20052;-71
2021/01/10 09:33:21;;;;;;;34.33;13.68;;;;;;;-3.66;72.89;96908.44;5053057;28;20045;-71
2021/01/10 09:35:48;;;;;;;40.35;14.68;;;;;;;-3.58;72.97;96908.22;5047858;28;20048;-70
2021/01/10 09:38:16;;;;;;;36.78;15.00;;;;;;;-3.46;72.73;96901.16;5047941;28;20053;-70
2021/01/10 09:41:02;;;;;;;42.03;15.63;;;;;;;-3.43;72.63;96906.06;5048400;28;20044;-71
2021/01/10 09:43:39;;;;;;;40.53;14.50;;;;;;;-3.32;72.41;96898.41;5047830;28;20075;-70
2021/01/10 09:46:22;;;;;;;40.70;14.85;;;;;;;-3.17;72.38;96893.56;5048270;28;20053;-71
2021/01/10 09:48:52;;;;;;;42.30;15.02;;;;;;;-3.08;72.47;96897.59;5056997;28;20044;-71
2021/01/10 09:51:18;;;;;;;40.70;15.80;;;;;;;-3.01;71.65;96895.69;5055287;28;20044;-71
2021/01/10 09:53:47;;;;;;;49.15;16.20;;;;;;;-2.85;71.44;96885.50;5060016;28;20052;-71
2021/01/10 09:56:15;;;;;;;41.45;16.60;;;;;;;-2.76;71.70;96890.34;5060452;28;20041;-71
2021/01/10 09:58:41;;;;;;;39.22;15.30;;;;;;;-2.70;70.97;96891.31;5056618;28;20167;-71
2021/01/10 10:01:09;;;;;;;40.30;14.77;;;;;;;-2.84;70.88;96892.47;5054421;28;20549;-70
2021/01/10 10:03:36;;;;;;;40.63;15.25;;;;;;;-2.88;71.49;96881.41;5056071;28;20057;-71
2021/01/10 10:06:02;;;;;;;42.08;14.40;;;;;;;-2.71;71.92;96877.16;5056529;28;20527;-71
2021/01/10 10:08:28;;;;;;;42.88;16.10;;;;;;;-2.55;71.77;96875.75;5059176;28;20049;-71
2021/01/10 10:10:54;;;;;;;40.50;15.43;;;;;;;-2.40;71.52;96884.19;5058186;28;20052;-70
2021/01/10 10:13:27;;;;;;;39.38;15.30;;;;;;;-2.29;71.61;96874.63;5051192;28;20064;-70
2021/01/10 10:15:54;;;;;;;38.05;15.10;;;;;;;-2.17;71.54;96877.38;5054262;28;20076;-71
2021/01/10 10:18:23;;;;;;;45.95;17.13;;;;;;;-2.06;71.08;96876.59;5059184;28;20044;-71
2021/01/10 10:20:50;;;;;;;41.88;16.02;;;;;;;-2.09;70.86;96874.38;5063590;28;20052;-71
2021/01/10 10:23:16;;;;;;;44.03;17.25;;;;;;;-2.03;70.83;96870.81;5060599;28;20055;-71
2021/01/10 10:25:44;;;;;;;44.95;16.45;;;;;;;-1.92;70.65;96871.91;5061990;28;20055;-71
2021/01/10 10:28:11;;;;;;;44.67;17.33;;;;;;;-1.87;70.51;96856.84;5055936;28;20053;-71
2021/01/10 10:30:38;;;;;;;41.60;17.55;;;;;;;-1.81;70.25;96862.31;5057338;28;20051;-72
2021/01/10 10:33:05;;;;;;;39.40;16.25;;;;;;;-1.79;68.87;96861.03;5057457;28;20041;-71
2021/01/10 10:35:31;;;;;;;42.33;17.52;;;;;;;-1.78;68.55;96851.16;5055499;28;20056;-71
2021/01/10 10:37:58;;;;;;;41.78;16.60;;;;;;;-1.74;69.23;96849.69;5058350;28;20049;-71
2021/01/10 10:40:24;;;;;;;44.17;17.65;;;;;;;-1.58;69.54;96849.03;5047151;28;20068;-71
2021/01/10 10:42:50;;;;;;;42.22;16.63;;;;;;;-1.54;69.58;96850.19;5047229;28;20053;-71
2021/01/10 10:45:18;;;;;;;46.63;17.73;;;;;;;-1.49;69.00;96846.84;5046902;28;20102;-71
2021/01/10 10:47:44;;;;;;;42.80;17.70;;;;;;;-1.52;69.09;96848.09;5052427;28;20079;-71
2021/01/10 10:50:11;;;;;;;45.58;18.30;;;;;;;-1.43;69.12;96844.06;5066595;28;20056;-71
2021/01/10 10:52:38;;;;;;;50.38;19.27;;;;;;;-1.34;68.81;96833.88;5067754;28;20052;-71
2021/01/10 10:55:05;;;;;;;49.33;17.60;;;;;;;-1.25;68.87;96842.34;5066124;28;20056;-71
2021/01/10 10:57:31;;;;;;;45.80;17.17;;;;;;;-1.13;69.23;96825.28;5067838;28;20059;-71
2021/01/10 10:59:57;;;;;;;48.67;17.88;;;;;;;-1.00;69.05;96818.88;5067756;28;20052;-71
2021/01/10 11:02:25;;;;;;;44.90;17.40;;;;;;;-0.86;68.61;96816.78;5059254;28;20075;-71
2021/01/10 11:04:50;;;;;;;45.72;18.27;;;;;;;-0.73;68.56;96815.72;5046725;28;20339;-71
2021/01/10 11:07:17;;;;;;;47.40;18.65;;;;;;;-0.42;68.51;96809.94;5047548;28;20693;-71
2021/01/10 11:09:45;;;;;;;42.60;18.17;;;;;;;-0.25;66.92;96810.03;5046349;28;20056;-71
2021/01/10 11:12:11;;;;;;;43.58;19.08;;;;;;;-0.16;67.49;96805.09;5045745;28;20041;-71
2021/01/10 11:14:38;;;;;;;43.33;18.02;;;;;;;-0.01;67.32;96797.38;5065818;28;20052;-70
2021/01/10 11:17:05;;;;;;;47.72;18.08;;;;;;;0.21;66.73;96792.97;5064730;28;20048;-71
2021/01/10 11:19:31;;;;;;;47.97;19.17;;;;;;;0.20;66.13;96791.31;5067100;28;20078;-70
2021/01/10 11:22:01;;;;;;;46.85;18.15;;;;;;;0.27;66.50;96782.34;5066246;28;20045;-71